createdAt,value
2023-02-27T00:01:59.041Z,2.60
2023-02-27T00:04:26.880Z,3.13
2023-02-27T00:06:56.017Z,2.60
2023-02-27T00:09:23.754Z,3.00
2023-02-27T00:11:51.636Z,2.93
2023-02-27T00:14:19.388Z,2.50
2023-02-27T00:16:47.385Z,3.00
2023-02-27T00:19:15.409Z,2.47
2023-02-27T00:21:44.532Z,2.57
2023-02-27T00:24:13.709Z,2.63
2023-02-27T00:26:41.533Z,2.90
2023-02-27T00:29:09.285Z,2.40
2023-02-27T00:31:37.229Z,2.30
2023-02-27T00:34:05.126Z,2.70
2023-02-27T00:36:35.024Z,2.40
2023-02-27T00:39:03.345Z,2.63
2023-02-27T00:41:32.612Z,2.77
2023-02-27T00:44:00.413Z,2.37
2023-02-27T00:46:28.214Z,2.30
2023-02-27T00:48:56.637Z,2.70
2023-02-27T00:51:25.562Z,2.80
2023-02-27T00:53:53.566Z,2.60
2023-02-27T00:56:21.327Z,3.57
2023-02-27T00:58:50.507Z,2.80
2023-02-27T01:01:18.311Z,2.70
2023-02-27T01:03:46.161Z,2.50
2023-02-27T01:06:13.927Z,2.70
2023-02-27T01:08:41.837Z,2.53
2023-02-27T01:11:09.579Z,2.73
2023-02-27T01:13:37.406Z,2.70
2023-02-27T01:16:08.532Z,2.53
2023-02-27T01:18:38.531Z,2.50
2023-02-27T01:21:06.615Z,2.43
2023-02-27T01:23:35.218Z,2.27
2023-02-27T01:26:03.082Z,2.77
2023-02-27T01:28:30.885Z,2.60
2023-02-27T01:30:58.632Z,2.60
2023-02-27T01:33:27.864Z,2.77
2023-02-27T01:35:55.687Z,2.40
2023-02-27T01:38:28.559Z,2.13
2023-02-27T01:40:57.310Z,2.67
2023-02-27T01:43:25.476Z,2.50
2023-02-27T01:45:53.946Z,2.20
2023-02-27T01:48:25.088Z,2.63
2023-02-27T01:50:57.610Z,2.60
2023-02-27T01:53:29.516Z,2.50
2023-02-27T01:56:00.184Z,2.50
2023-02-27T01:58:28.401Z,2.33
2023-02-27T02:00:56.671Z,2.60
2023-02-27T02:03:32.624Z,2.40
2023-02-27T02:06:06.074Z,1.97
2023-02-27T02:08:37.036Z,2.33
2023-02-27T02:11:06.944Z,2.63
2023-02-27T02:13:35.538Z,2.17
2023-02-27T02:16:18.194Z,2.30
2023-02-27T02:18:54.892Z,2.60
2023-02-27T02:22:07.360Z,2.67
2023-02-27T02:25:11.808Z,2.40
2023-02-27T02:28:10.571Z,2.53
2023-02-27T02:31:10.288Z,2.30
2023-02-27T02:34:19.152Z,2.80
2023-02-27T02:37:13.950Z,2.53
2023-02-27T02:39:58.327Z,2.67
2023-02-27T02:42:31.429Z,2.53
2023-02-27T02:45:12.619Z,2.20
2023-02-27T02:47:54.204Z,2.60
2023-02-27T02:50:27.971Z,2.60
2023-02-27T02:53:05.825Z,2.70
2023-02-27T02:55:39.339Z,2.50
2023-02-27T02:58:12.863Z,2.30
2023-02-27T03:00:46.155Z,2.03
2023-02-27T03:03:18.065Z,2.67
2023-02-27T03:05:51.824Z,2.10
2023-02-27T03:08:24.200Z,2.30
2023-02-27T03:10:58.719Z,2.40
2023-02-27T03:13:32.660Z,2.10
2023-02-27T03:16:06.207Z,2.37
2023-02-27T03:18:38.496Z,2.20
2023-02-27T03:21:10.941Z,2.30
2023-02-27T03:23:43.577Z,2.37
2023-02-27T03:26:20.404Z,2.37
2023-02-27T03:28:55.822Z,2.07
2023-02-27T03:31:32.232Z,2.50
2023-02-27T03:34:13.543Z,2.43
2023-02-27T03:36:49.270Z,2.40
2023-02-27T03:39:28.531Z,2.97
2023-02-27T03:42:09.776Z,2.37
2023-02-27T03:45:08.098Z,2.43
2023-02-27T03:47:38.821Z,2.47
2023-02-27T03:50:07.980Z,2.73
2023-02-27T03:52:36.196Z,2.60
2023-02-27T03:55:10.832Z,2.30
2023-02-27T03:57:41.382Z,2.57
2023-02-27T04:00:13.685Z,2.30
2023-02-27T04:02:43.000Z,2.40
2023-02-27T04:05:11.876Z,3.00
2023-02-27T04:07:59.016Z,2.60
2023-02-27T04:10:55.886Z,3.00
2023-02-27T04:13:38.990Z,2.90
2023-02-27T04:16:21.768Z,2.57
2023-02-27T04:19:04.726Z,2.80
2023-02-27T04:21:39.387Z,2.50
2023-02-27T04:24:21.609Z,2.73
2023-02-27T04:26:53.748Z,2.80
2023-02-27T04:29:33.400Z,2.47
2023-02-27T04:32:06.235Z,2.70
2023-02-27T04:34:40.169Z,2.90
2023-02-27T04:37:14.042Z,2.77
2023-02-27T04:39:51.617Z,2.90
2023-02-27T04:42:24.201Z,2.43
2023-02-27T04:44:57.364Z,2.87
2023-02-27T04:47:28.575Z,2.33
2023-02-27T04:50:10.823Z,3.00
2023-02-27T04:52:44.361Z,2.50
2023-02-27T04:55:16.031Z,3.00
2023-02-27T04:57:52.517Z,3.27
2023-02-27T05:00:35.839Z,2.93
2023-02-27T05:03:11.136Z,3.10
2023-02-27T05:05:41.057Z,3.10
2023-02-27T05:08:20.677Z,3.33
2023-02-27T05:10:53.745Z,3.13
2023-02-27T05:13:27.238Z,3.00
2023-02-27T05:16:07.602Z,3.13
2023-02-27T05:18:36.131Z,2.57
2023-02-27T05:21:17.041Z,3.20
2023-02-27T05:24:04.377Z,2.70
2023-02-27T05:26:41.905Z,3.03
2023-02-27T05:29:17.926Z,2.90
2023-02-27T05:31:52.918Z,2.90
2023-02-27T05:34:24.964Z,2.80
2023-02-27T05:36:56.945Z,2.90
2023-02-27T05:39:27.744Z,2.60
2023-02-27T05:41:59.841Z,2.87
2023-02-27T05:44:32.424Z,2.67
2023-02-27T05:47:05.579Z,3.00
2023-02-27T05:49:38.097Z,3.03
2023-02-27T05:52:10.906Z,2.77
2023-02-27T05:54:43.015Z,2.90
2023-02-27T05:57:15.724Z,3.97
2023-02-27T05:59:51.234Z,3.40
2023-02-27T06:02:20.717Z,3.20
2023-02-27T06:04:49.001Z,3.37
2023-02-27T06:07:16.791Z,3.33
2023-02-27T06:09:45.484Z,3.03
2023-02-27T06:12:13.697Z,3.57
2023-02-27T06:14:41.485Z,3.50
2023-02-27T06:17:09.473Z,3.60
2023-02-27T06:19:38.599Z,3.87
2023-02-27T06:22:06.395Z,4.27
2023-02-27T06:24:37.368Z,3.80
2023-02-27T06:27:07.072Z,3.40
2023-02-27T06:29:37.160Z,3.80
2023-02-27T06:32:05.116Z,4.50
2023-02-27T06:34:32.976Z,3.70
2023-02-27T06:37:04.161Z,3.50
2023-02-27T06:39:32.767Z,4.07
2023-02-27T06:42:00.539Z,3.97
2023-02-27T06:44:29.378Z,4.90
2023-02-27T06:46:57.304Z,3.63
2023-02-27T06:49:25.171Z,3.67
2023-02-27T06:51:53.098Z,3.93
2023-02-27T06:54:22.493Z,3.60
2023-02-27T06:56:51.805Z,4.27
2023-02-27T06:59:19.714Z,4.33
2023-02-27T07:01:50.233Z,4.00
2023-02-27T07:04:21.840Z,4.10
2023-02-27T07:07:34.419Z,3.80
2023-02-27T07:09:39.379Z,4.47
2023-02-27T07:12:08.081Z,4.03
2023-02-27T07:14:36.057Z,4.20
2023-02-27T07:17:04.603Z,3.90
2023-02-27T07:19:33.806Z,4.37
2023-02-27T07:22:01.573Z,3.80
2023-02-27T07:24:29.299Z,4.33
2023-02-27T07:26:58.412Z,4.53
2023-02-27T07:29:26.364Z,4.50
2023-02-27T07:31:54.303Z,4.50
2023-02-27T07:34:22.143Z,4.83
2023-02-27T07:36:49.921Z,4.53
2023-02-27T07:39:18.805Z,4.63
2023-02-27T07:41:46.630Z,4.73
2023-02-27T07:44:19.835Z,5.27
2023-02-27T07:46:47.765Z,5.10
2023-02-27T07:49:15.512Z,4.30
2023-02-27T07:51:43.806Z,5.07
2023-02-27T07:54:11.607Z,4.63
2023-02-27T07:56:39.401Z,5.10
2023-02-27T07:59:07.279Z,4.67
2023-02-27T08:01:36.484Z,4.87
2023-02-27T08:04:04.400Z,4.77
2023-02-27T08:06:32.170Z,5.57
2023-02-27T08:09:03.928Z,4.93
2023-02-27T08:11:43.732Z,4.37
2023-02-27T08:14:11.536Z,4.63
2023-02-27T08:16:40.651Z,4.60
2023-02-27T08:19:08.442Z,4.50
2023-02-27T08:21:39.554Z,4.87
2023-02-27T08:24:10.843Z,4.83
2023-02-27T08:26:38.672Z,5.17
2023-02-27T08:29:06.467Z,4.90
2023-02-27T08:31:34.256Z,4.63
2023-02-27T08:34:10.118Z,4.47
2023-02-27T08:36:38.843Z,4.10
2023-02-27T08:39:06.990Z,4.77
2023-02-27T08:41:35.136Z,4.50
2023-02-27T08:44:03.192Z,3.80
2023-02-27T08:46:33.979Z,4.03
2023-02-27T08:49:05.180Z,3.50
2023-02-27T08:51:33.272Z,3.77
2023-02-27T08:54:02.932Z,4.20
2023-02-27T08:56:31.544Z,4.17
2023-02-27T08:58:59.294Z,3.87
2023-02-27T09:01:31.682Z,3.33
2023-02-27T09:03:59.540Z,3.50
2023-02-27T09:06:29.331Z,3.47
2023-02-27T09:08:57.672Z,3.27
2023-02-27T09:11:26.774Z,3.60
2023-02-27T09:13:55.623Z,3.30
2023-02-27T09:16:24.264Z,3.57
2023-02-27T09:18:52.693Z,2.93
2023-02-27T09:21:24.669Z,2.87
2023-02-27T09:23:54.014Z,3.60
2023-02-27T09:26:28.768Z,3.20
2023-02-27T09:29:03.602Z,3.73
2023-02-27T09:31:33.219Z,3.53
2023-02-27T09:34:02.012Z,3.43
2023-02-27T09:36:30.166Z,3.50
2023-02-27T09:39:00.854Z,4.00
2023-02-27T09:41:43.252Z,3.57
2023-02-27T09:44:33.453Z,2.90
2023-02-27T09:47:14.171Z,3.70
2023-02-27T09:49:50.637Z,3.73
2023-02-27T09:52:18.508Z,3.67
2023-02-27T09:54:47.762Z,5.00
2023-02-27T09:57:19.880Z,3.80
2023-02-27T09:59:53.467Z,3.60
2023-02-27T10:02:34.830Z,3.30
2023-02-27T10:05:13.374Z,2.93
2023-02-27T10:07:45.879Z,2.10
2023-02-27T10:10:25.942Z,1.30
2023-02-27T10:13:08.604Z,1.57
2023-02-27T10:15:42.882Z,1.27
2023-02-27T10:18:26.178Z,1.33
2023-02-27T10:20:58.089Z,1.37
2023-02-27T10:23:36.934Z,1.33
2023-02-27T10:26:06.617Z,1.30
2023-02-27T10:28:35.013Z,1.90
2023-02-27T10:31:03.439Z,2.00
2023-02-27T10:33:36.530Z,1.73
2023-02-27T10:36:12.454Z,1.50
2023-02-27T10:38:46.923Z,1.80
2023-02-27T10:41:18.386Z,1.60
2023-02-27T10:43:46.498Z,1.80
2023-02-27T10:46:16.952Z,2.03
2023-02-27T10:48:45.117Z,1.93
2023-02-27T10:51:31.561Z,1.83
2023-02-27T10:54:20.067Z,1.60
2023-02-27T10:56:52.169Z,1.80
2023-02-27T10:59:22.419Z,2.53
2023-02-27T11:01:53.175Z,1.90
2023-02-27T11:04:34.047Z,1.87
2023-02-27T11:07:04.812Z,1.60
2023-02-27T11:09:34.497Z,1.50
2023-02-27T11:12:19.070Z,2.03
2023-02-27T11:14:51.809Z,2.03
2023-02-27T11:17:25.678Z,1.37
2023-02-27T11:19:53.417Z,1.70
2023-02-27T11:22:24.493Z,1.70
2023-02-27T11:24:53.281Z,1.97
2023-02-27T11:27:26.658Z,1.47
2023-02-27T11:29:59.907Z,1.70
2023-02-27T11:32:36.759Z,1.60
2023-02-27T11:35:05.624Z,1.33
2023-02-27T11:37:35.978Z,1.80
2023-02-27T11:40:15.555Z,1.70
2023-02-27T11:42:48.341Z,1.40
2023-02-27T11:46:05.291Z,1.70
2023-02-27T11:48:23.564Z,1.30
2023-02-27T11:51:07.181Z,1.60
2023-02-27T11:54:11.511Z,1.40
2023-02-27T11:56:44.275Z,1.60
2023-02-27T11:59:31.726Z,1.90
2023-02-27T12:02:07.316Z,1.63
2023-02-27T12:04:44.734Z,1.50
2023-02-27T12:07:19.923Z,1.40
2023-02-27T12:09:54.774Z,1.13
2023-02-27T12:12:29.809Z,1.50
2023-02-27T12:15:06.526Z,1.53
2023-02-27T12:17:40.940Z,1.60
2023-02-27T12:20:26.223Z,1.20
2023-02-27T12:22:55.189Z,1.63
2023-02-27T12:25:34.967Z,1.63
2023-02-27T12:28:09.261Z,1.70
2023-02-27T12:30:43.278Z,1.87
2023-02-27T12:33:18.811Z,1.50
2023-02-27T12:35:51.848Z,1.20
2023-02-27T12:38:20.720Z,1.60
2023-02-27T12:41:09.364Z,1.30
2023-02-27T12:43:46.256Z,1.10
2023-02-27T12:46:28.740Z,1.30
2023-02-27T12:49:17.468Z,1.30
2023-02-27T12:51:53.802Z,1.40
2023-02-27T12:54:34.837Z,1.20
2023-02-27T12:57:15.894Z,1.93
2023-02-27T13:00:12.782Z,1.60
2023-02-27T13:03:13.218Z,1.80
2023-02-27T13:05:49.205Z,1.50
2023-02-27T13:08:34.490Z,1.20
2023-02-27T13:11:11.746Z,1.53
2023-02-27T13:13:45.152Z,1.20
2023-02-27T13:16:16.350Z,1.43
2023-02-27T13:18:51.819Z,1.20
2023-02-27T13:21:26.542Z,1.13
2023-02-27T13:24:05.629Z,1.53
2023-02-27T13:26:39.527Z,1.40
2023-02-27T13:29:08.041Z,2.10
2023-02-27T13:31:47.056Z,1.40
2023-02-27T13:34:22.888Z,1.50
2023-02-27T13:36:54.063Z,1.87
2023-02-27T13:39:56.079Z,1.40
2023-02-27T13:42:58.714Z,1.77
2023-02-27T13:45:59.812Z,1.30
2023-02-27T13:48:46.129Z,1.77
2023-02-27T13:51:46.268Z,1.40
2023-02-27T13:54:36.227Z,1.30
2023-02-27T13:57:25.944Z,1.20
2023-02-27T13:59:56.786Z,1.00
2023-02-27T14:02:40.086Z,0.97
2023-02-27T14:05:11.309Z,1.50
2023-02-27T14:07:55.103Z,1.30
2023-02-27T14:10:25.645Z,1.80
2023-02-27T14:12:54.263Z,2.20
2023-02-27T14:15:52.351Z,1.57
2023-02-27T14:18:58.206Z,1.13
2023-02-27T14:21:53.501Z,1.67
2023-02-27T14:24:26.785Z,1.83
2023-02-27T14:26:55.601Z,1.23
2023-02-27T14:29:30.926Z,1.30
2023-02-27T14:32:00.887Z,2.07
2023-02-27T14:34:29.594Z,1.47
2023-02-27T14:37:02.085Z,1.47
2023-02-27T14:39:34.459Z,2.00
2023-02-27T14:42:22.248Z,1.40
2023-02-27T14:44:51.979Z,1.27
2023-02-27T14:47:25.152Z,1.40
2023-02-27T14:49:53.178Z,1.25
2023-02-27T14:52:22.804Z,1.30
2023-02-27T14:54:53.674Z,1.93
2023-02-27T14:57:24.207Z,1.57
2023-02-27T14:59:53.873Z,1.60
2023-02-27T15:02:24.265Z,1.63
2023-02-27T15:04:56.823Z,1.83
2023-02-27T15:07:26.885Z,1.47
2023-02-27T15:09:59.128Z,1.40
2023-02-27T15:12:29.113Z,1.60
2023-02-27T15:14:59.744Z,1.33
2023-02-27T15:17:39.439Z,1.37
2023-02-27T15:20:25.244Z,1.10
2023-02-27T15:22:53.312Z,1.43
2023-02-27T15:25:32.810Z,1.40
2023-02-27T15:28:04.540Z,1.57
2023-02-27T15:30:33.101Z,1.07
2023-02-27T15:33:02.785Z,1.60
2023-02-27T15:35:39.601Z,1.47
2023-02-27T15:38:07.809Z,1.17
2023-02-27T15:40:47.142Z,0.90
2023-02-27T15:43:15.030Z,1.23
2023-02-27T15:45:43.599Z,1.40
2023-02-27T15:48:14.911Z,1.57
2023-02-27T15:50:44.890Z,1.20
2023-02-27T15:53:15.402Z,1.20
2023-02-27T15:55:46.618Z,1.40
2023-02-27T15:58:24.351Z,1.50
2023-02-27T16:01:00.440Z,1.30
2023-02-27T16:03:32.939Z,1.60
2023-02-27T16:06:01.744Z,1.43
2023-02-27T16:08:32.532Z,1.57
2023-02-27T16:11:00.325Z,1.20
2023-02-27T16:13:35.878Z,1.27
2023-02-27T16:16:06.441Z,1.43
2023-02-27T16:18:37.182Z,1.30
2023-02-27T16:21:23.383Z,1.50
2023-02-27T16:23:54.940Z,1.40
2023-02-27T16:26:36.836Z,1.10
2023-02-27T16:29:15.219Z,1.40
2023-02-27T16:31:48.987Z,1.40
2023-02-27T16:34:28.053Z,1.23
2023-02-27T16:37:03.330Z,1.57
2023-02-27T16:39:31.294Z,1.70
2023-02-27T16:42:02.482Z,1.40
2023-02-27T16:44:31.593Z,1.40
2023-02-27T16:46:59.650Z,1.43
2023-02-27T16:49:32.072Z,1.57
2023-02-27T16:52:03.301Z,1.40
2023-02-27T16:54:31.104Z,1.93
2023-02-27T16:56:58.891Z,1.60
2023-02-27T16:59:33.565Z,1.90
2023-02-27T17:02:03.479Z,1.60
2023-02-27T17:04:31.342Z,1.60
2023-02-27T17:07:01.044Z,1.60
2023-02-27T17:09:29.805Z,2.00
2023-02-27T17:11:58.525Z,1.83
2023-02-27T17:14:26.253Z,1.73
2023-02-27T17:16:55.379Z,1.97
2023-02-27T17:19:23.888Z,1.83
2023-02-27T17:21:51.780Z,1.77
2023-02-27T17:24:19.884Z,2.00
2023-02-27T17:26:47.673Z,1.80
2023-02-27T17:29:16.582Z,2.13
2023-02-27T17:31:44.778Z,2.13
2023-02-27T17:34:13.935Z,1.87
2023-02-27T17:36:42.029Z,2.17
2023-02-27T17:39:12.656Z,2.20
2023-02-27T17:41:41.731Z,1.87
2023-02-27T17:44:19.707Z,2.23
2023-02-27T17:46:47.478Z,2.20
2023-02-27T17:49:17.536Z,2.27
2023-02-27T17:51:45.357Z,2.30
2023-02-27T17:54:13.272Z,2.40
2023-02-27T17:56:41.081Z,2.40
2023-02-27T17:59:08.896Z,2.50
2023-02-27T18:01:36.856Z,2.40
2023-02-27T18:04:05.054Z,2.30
2023-02-27T18:06:34.451Z,3.20
2023-02-27T18:09:02.483Z,2.60
2023-02-27T18:11:30.228Z,3.03
2023-02-27T18:13:58.561Z,3.10
2023-02-27T18:16:26.738Z,2.67
2023-02-27T18:18:54.723Z,2.43
2023-02-27T18:21:24.542Z,2.70
2023-02-27T18:23:59.640Z,3.23
2023-02-27T18:26:31.247Z,2.90
2023-02-27T18:29:00.567Z,2.27
2023-02-27T18:31:33.243Z,2.93
2023-02-27T18:34:01.537Z,2.77
2023-02-27T18:36:29.989Z,2.40
2023-02-27T18:39:00.128Z,2.33
2023-02-27T18:41:33.392Z,2.40
2023-02-27T18:44:01.315Z,3.13
2023-02-27T18:46:29.927Z,2.50
2023-02-27T18:48:57.926Z,2.80
2023-02-27T18:51:26.466Z,5.20
2023-02-27T18:53:54.825Z,4.30
2023-02-27T18:56:26.261Z,3.00
2023-02-27T18:59:01.795Z,3.27
2023-02-27T19:01:32.174Z,3.30
2023-02-27T19:04:03.625Z,2.90
2023-02-27T19:06:32.348Z,3.20
2023-02-27T19:09:00.205Z,3.00
2023-02-27T19:11:33.136Z,3.10
2023-02-27T19:14:01.568Z,3.37
2023-02-27T19:16:29.989Z,3.40
2023-02-27T19:18:58.489Z,3.00
2023-02-27T19:21:27.123Z,3.07
2023-02-27T19:24:02.307Z,3.00
2023-02-27T19:26:36.848Z,2.90
2023-02-27T19:29:06.621Z,2.93
2023-02-27T19:31:39.663Z,3.00
2023-02-27T19:34:10.326Z,2.90
2023-02-27T19:36:38.319Z,3.67
2023-02-27T19:39:06.098Z,3.50
2023-02-27T19:41:35.403Z,3.10
2023-02-27T19:44:03.319Z,3.27
2023-02-27T19:46:33.719Z,3.50
2023-02-27T19:49:04.353Z,3.17
2023-02-27T19:51:32.697Z,3.03
2023-02-27T19:54:01.509Z,3.30
2023-02-27T19:56:31.913Z,3.40
2023-02-27T19:59:02.216Z,3.37
2023-02-27T20:01:32.585Z,3.27
2023-02-27T20:04:01.132Z,3.10
2023-02-27T20:06:31.277Z,3.50
2023-02-27T20:08:59.549Z,3.07
2023-02-27T20:11:31.262Z,3.10
2023-02-27T20:13:59.887Z,3.67
2023-02-27T20:16:30.816Z,3.87
2023-02-27T20:18:59.206Z,3.53
2023-02-27T20:21:31.055Z,3.60
2023-02-27T20:24:02.452Z,3.47
2023-02-27T20:26:32.404Z,3.63
2023-02-27T20:29:06.670Z,4.07
2023-02-27T20:31:38.282Z,4.00
2023-02-27T20:34:07.643Z,4.20
2023-02-27T20:36:36.430Z,4.57
2023-02-27T20:39:07.184Z,3.53
2023-02-27T20:41:39.956Z,4.20
2023-02-27T20:44:11.819Z,4.70
2023-02-27T20:46:48.923Z,3.60
2023-02-27T20:49:17.163Z,4.13
2023-02-27T20:51:45.313Z,3.60
2023-02-27T20:54:16.617Z,3.60
2023-02-27T20:56:44.639Z,3.57
2023-02-27T20:59:15.519Z,3.63
2023-02-27T21:01:54.110Z,3.37
2023-02-27T21:04:42.071Z,3.00
2023-02-27T21:07:14.609Z,3.00
2023-02-27T21:09:50.009Z,3.03
2023-02-27T21:12:22.097Z,2.70
2023-02-27T21:14:49.811Z,2.77
2023-02-27T21:17:24.086Z,2.93
2023-02-27T21:19:52.318Z,2.70
2023-02-27T21:22:22.572Z,2.80
2023-02-27T21:24:54.945Z,2.73
2023-02-27T21:27:22.680Z,2.47
2023-02-27T21:29:51.030Z,2.50
2023-02-27T21:32:20.654Z,2.50
2023-02-27T21:34:48.569Z,2.80
2023-02-27T21:37:18.188Z,2.43
2023-02-27T21:39:52.569Z,2.37
2023-02-27T21:42:20.594Z,2.47
2023-02-27T21:44:50.152Z,2.63
2023-02-27T21:47:19.034Z,3.17
2023-02-27T21:49:52.174Z,3.40
2023-02-27T21:52:23.017Z,3.13
2023-02-27T21:54:54.295Z,3.17
2023-02-27T21:57:22.990Z,2.87
2023-02-27T21:59:50.807Z,2.97
2023-02-27T22:02:21.440Z,3.10
2023-02-27T22:04:50.657Z,3.00
2023-02-27T22:07:24.546Z,2.70
2023-02-27T22:09:52.375Z,2.70
2023-02-27T22:12:25.208Z,3.07
2023-02-27T22:14:59.205Z,2.73
2023-02-27T22:17:27.092Z,2.97
2023-02-27T22:19:58.211Z,2.80
2023-02-27T22:22:26.045Z,2.80
2023-02-27T22:24:53.824Z,2.93
2023-02-27T22:27:21.582Z,3.50
2023-02-27T22:29:49.420Z,3.00
2023-02-27T22:32:17.197Z,3.13
2023-02-27T22:34:46.995Z,3.40
2023-02-27T22:37:19.839Z,3.03
2023-02-27T22:39:47.642Z,3.70
2023-02-27T22:42:15.770Z,3.50
2023-02-27T22:44:43.562Z,3.00
2023-02-27T22:47:12.856Z,3.17
2023-02-27T22:49:42.871Z,3.17
2023-02-27T22:52:11.234Z,2.97
2023-02-27T22:54:40.815Z,3.83
2023-02-27T22:57:08.668Z,3.10
2023-02-27T22:59:36.387Z,3.13
2023-02-27T23:02:06.529Z,3.57
2023-02-27T23:04:34.238Z,3.47
2023-02-27T23:07:01.892Z,3.47
2023-02-27T23:09:29.558Z,3.30
2023-02-27T23:11:58.848Z,2.90
2023-02-27T23:14:26.501Z,3.27
2023-02-27T23:16:54.416Z,3.50
2023-02-27T23:19:23.171Z,3.57
2023-02-27T23:21:50.998Z,3.13
2023-02-27T23:24:20.162Z,4.00
2023-02-27T23:26:49.647Z,3.03
2023-02-27T23:29:21.865Z,3.00
2023-02-27T23:31:50.215Z,3.00
2023-02-27T23:34:18.081Z,2.90
2023-02-27T23:36:47.655Z,2.80
2023-02-27T23:39:15.356Z,2.90
2023-02-27T23:41:43.104Z,2.57
2023-02-27T23:44:10.816Z,2.60
2023-02-27T23:46:40.585Z,2.47
2023-02-27T23:49:08.825Z,2.63
2023-02-27T23:51:36.973Z,2.37
2023-02-27T23:54:05.155Z,2.53
2023-02-27T23:56:32.997Z,3.13
2023-02-27T23:59:02.636Z,2.30
